GTI8002 KIAH-LEZG
Flight info
| Callsign | GTI8002 |
|---|---|
| Flight time | N/A |
| Altitude | 35000 |
| Route | STRYA8 DPATY DCT MEI DCT SPA/N0492F370 DCT RDU DCT ORF AR9 CROAK/M085F370 DCT 37N070W DCT SOORY DCT 42N050W/M085F390 44N040W 46N030W 45N020W 44N015W DCT MUDOS/N0491F390 DCT STG DCT SUSOS/N0494F400 N725 DGO/N0450F240 DCT ALEPO |
| Aircraft | B748/H-SDE3FGHIM1M2RWXY/LB1 |
Departure
| Time | 2026-05-06 05:16 |
|---|---|
| Airport | George Bush Intercontinental Airport (KIAH) |
Arrival
| Time | N/A |
|---|---|
| Airport | Zaragoza Airport (LEZG) |
| Time | Latitude | Longitude | Altitude | Speed | Heading |
|---|---|---|---|---|---|
| 2026-05-06 04:45 | 29.99450 | -95.31182 | 114 ft | 0 kts | 360° |
| 2026-05-06 04:56 | 29.99449 | -95.31182 | 114 ft | 1 kts | 360° |
| 2026-05-06 04:56 | 29.99425 | -95.31182 | 110 ft | 4 kts | 360° |
| 2026-05-06 04:57 | 29.99404 | -95.31183 | 114 ft | 4 kts | 347° |
| 2026-05-06 04:57 | 29.99384 | -95.31176 | 114 ft | 4 kts | 312° |
| 2026-05-06 04:57 | 29.99372 | -95.31157 | 114 ft | 4 kts | 279° |
| 2026-05-06 04:57 | 29.99370 | -95.31128 | 114 ft | 3 kts | 270° |
| 2026-05-06 04:58 | 29.99370 | -95.31098 | 114 ft | 4 kts | 270° |
| 2026-05-06 04:58 | 29.99370 | -95.31091 | 114 ft | 0 kts | 270° |
| 2026-05-06 05:00 | 29.99370 | -95.31102 | 114 ft | 4 kts | 270° |
| 2026-05-06 05:00 | 29.99370 | -95.31148 | 110 ft | 7 kts | 270° |
| 2026-05-06 05:01 | 29.99369 | -95.31219 | 114 ft | 10 kts | 270° |
| 2026-05-06 05:01 | 29.99345 | -95.31287 | 110 ft | 8 kts | 216° |
| 2026-05-06 05:01 | 29.99290 | -95.31295 | 109 ft | 9 kts | 179° |
| 2026-05-06 05:01 | 29.99214 | -95.31294 | 109 ft | 12 kts | 180° |
| 2026-05-06 05:02 | 29.99118 | -95.31296 | 112 ft | 14 kts | 189° |
| 2026-05-06 05:02 | 29.99084 | -95.31329 | 110 ft | 5 kts | 248° |
| 2026-05-06 05:02 | 29.99080 | -95.31390 | 110 ft | 11 kts | 270° |
| 2026-05-06 05:02 | 29.99081 | -95.31497 | 111 ft | 15 kts | 270° |
| 2026-05-06 05:03 | 29.99081 | -95.31622 | 113 ft | 16 kts | 270° |
| 2026-05-06 05:03 | 29.99080 | -95.31749 | 113 ft | 16 kts | 270° |
| 2026-05-06 05:03 | 29.99080 | -95.31872 | 110 ft | 15 kts | 270° |
| 2026-05-06 05:03 | 29.99080 | -95.31990 | 111 ft | 14 kts | 270° |
| 2026-05-06 05:04 | 29.99080 | -95.32103 | 110 ft | 14 kts | 270° |
| 2026-05-06 05:04 | 29.99080 | -95.32212 | 110 ft | 13 kts | 270° |
| 2026-05-06 05:04 | 29.99080 | -95.32315 | 110 ft | 13 kts | 270° |
| 2026-05-06 05:04 | 29.99080 | -95.32416 | 110 ft | 12 kts | 270° |
| 2026-05-06 05:05 | 29.99084 | -95.32512 | 114 ft | 12 kts | 277° |
| 2026-05-06 05:05 | 29.99090 | -95.32604 | 110 ft | 11 kts | 271° |
| 2026-05-06 05:05 | 29.99090 | -95.32696 | 114 ft | 13 kts | 270° |
| 2026-05-06 05:05 | 29.99090 | -95.32807 | 114 ft | 14 kts | 270° |
| 2026-05-06 05:06 | 29.99091 | -95.32925 | 112 ft | 15 kts | 270° |
| 2026-05-06 05:06 | 29.99092 | -95.33047 | 112 ft | 15 kts | 270° |
| 2026-05-06 05:06 | 29.99091 | -95.33173 | 112 ft | 16 kts | 269° |
| 2026-05-06 05:06 | 29.99091 | -95.33301 | 111 ft | 16 kts | 270° |
| 2026-05-06 05:07 | 29.99090 | -95.33429 | 112 ft | 16 kts | 270° |
| 2026-05-06 05:07 | 29.99090 | -95.33553 | 114 ft | 15 kts | 270° |
| 2026-05-06 05:07 | 29.99090 | -95.33676 | 114 ft | 15 kts | 269° |
| 2026-05-06 05:07 | 29.99089 | -95.33798 | 114 ft | 15 kts | 269° |
| 2026-05-06 05:08 | 29.99087 | -95.33918 | 114 ft | 15 kts | 269° |
| 2026-05-06 05:08 | 29.99086 | -95.34037 | 114 ft | 15 kts | 271° |
| 2026-05-06 05:08 | 29.99087 | -95.34153 | 114 ft | 15 kts | 270° |
| 2026-05-06 05:08 | 29.99088 | -95.34270 | 114 ft | 14 kts | 270° |
| 2026-05-06 05:09 | 29.99085 | -95.34385 | 114 ft | 14 kts | 268° |
| 2026-05-06 05:09 | 29.99085 | -95.34499 | 114 ft | 14 kts | 270° |
| 2026-05-06 05:09 | 29.99085 | -95.34609 | 114 ft | 13 kts | 270° |
| 2026-05-06 05:09 | 29.99085 | -95.34713 | 114 ft | 13 kts | 270° |
| 2026-05-06 05:10 | 29.99084 | -95.34811 | 114 ft | 12 kts | 269° |
| 2026-05-06 05:10 | 29.99086 | -95.34906 | 114 ft | 12 kts | 272° |
| 2026-05-06 05:10 | 29.99090 | -95.35009 | 114 ft | 13 kts | 272° |
| 2026-05-06 05:10 | 29.99091 | -95.35113 | 113 ft | 13 kts | 270° |
| 2026-05-06 05:11 | 29.99091 | -95.35216 | 114 ft | 13 kts | 270° |
| 2026-05-06 05:11 | 29.99091 | -95.35317 | 114 ft | 12 kts | 270° |
| 2026-05-06 05:11 | 29.99091 | -95.35414 | 114 ft | 12 kts | 270° |
| 2026-05-06 05:11 | 29.99087 | -95.35471 | 114 ft | 1 kts | 245° |
| 2026-05-06 05:12 | 29.99078 | -95.35480 | 114 ft | 3 kts | 220° |
| 2026-05-06 05:12 | 29.99046 | -95.35486 | 114 ft | 7 kts | 180° |
| 2026-05-06 05:12 | 29.98968 | -95.35486 | 114 ft | 14 kts | 181° |
| 2026-05-06 05:12 | 29.98890 | -95.35541 | 114 ft | 14 kts | 235° |
| 2026-05-06 05:13 | 29.98841 | -95.35650 | 114 ft | 15 kts | 243° |
| 2026-05-06 05:13 | 29.98802 | -95.35736 | 114 ft | 7 kts | 242° |
| 2026-05-06 05:13 | 29.98778 | -95.35763 | 115 ft | 2 kts | 205° |
| 2026-05-06 05:13 | 29.98759 | -95.35766 | 115 ft | 3 kts | 180° |
| 2026-05-06 05:14 | 29.98733 | -95.35754 | 115 ft | 6 kts | 153° |
| 2026-05-06 05:14 | 29.98716 | -95.35742 | 115 ft | 0 kts | 150° |
| 2026-05-06 05:15 | 29.98714 | -95.35742 | 115 ft | 1 kts | 150° |
| 2026-05-06 05:15 | 29.98663 | -95.35709 | 114 ft | 30 kts | 152° |
| 2026-05-06 05:15 | 29.98233 | -95.35448 | 114 ft | 108 kts | 152° |
| 2026-05-06 05:16 | 29.97370 | -95.34922 | 113 ft | 170 kts | 152° |
| 2026-05-06 05:16 | 29.96187 | -95.34216 | 388 ft | 203 kts | 153° |
| 2026-05-06 05:16 | 29.94936 | -95.33473 | 1413 ft | 199 kts | 153° |
| 2026-05-06 05:16 | 29.93700 | -95.32764 | 2298 ft | 202 kts | 155° |
| 2026-05-06 05:17 | 29.92393 | -95.31978 | 2714 ft | 226 kts | 147° |
| 2026-05-06 05:17 | 29.91062 | -95.30850 | 3018 ft | 251 kts | 150° |
| 2026-05-06 05:17 | 29.89570 | -95.29811 | 4204 ft | 246 kts | 154° |
| 2026-05-06 05:17 | 29.88044 | -95.28856 | 5369 ft | 255 kts | 155° |
| 2026-05-06 05:18 | 29.86496 | -95.27781 | 6471 ft | 265 kts | 141° |
| 2026-05-06 05:18 | 29.85425 | -95.26027 | 7498 ft | 281 kts | 113° |
| 2026-05-06 05:18 | 29.85163 | -95.23754 | 8554 ft | 297 kts | 86° |
| 2026-05-06 05:18 | 29.85692 | -95.21415 | 9544 ft | 309 kts | 65° |
| 2026-05-06 05:19 | 29.87023 | -95.19411 | 10435 ft | 319 kts | 38° |
| 2026-05-06 05:19 | 29.89008 | -95.18115 | 10994 ft | 341 kts | 15° |
| 2026-05-06 05:19 | 29.91409 | -95.17735 | 11351 ft | 359 kts | 353° |
| 2026-05-06 05:19 | 29.93902 | -95.18371 | 11662 ft | 376 kts | 334° |
| 2026-05-06 05:20 | 29.96256 | -95.19770 | 11862 ft | 397 kts | 326° |
| 2026-05-06 05:20 | 29.98666 | -95.21432 | 12505 ft | 405 kts | 326° |
| 2026-05-06 05:20 | 30.01157 | -95.23005 | 13386 ft | 410 kts | 331° |
| 2026-05-06 05:20 | 30.03868 | -95.24154 | 14189 ft | 420 kts | 343° |
| 2026-05-06 05:21 | 30.06773 | -95.24503 | 14994 ft | 430 kts | 357° |
| 2026-05-06 05:21 | 30.09779 | -95.24039 | 15723 ft | 442 kts | 11° |
| 2026-05-06 05:21 | 30.12683 | -95.22764 | 16467 ft | 453 kts | 24° |
| 2026-05-06 05:21 | 30.15369 | -95.20776 | 17124 ft | 461 kts | 32° |
| 2026-05-06 05:22 | 30.17097 | -95.19328 | 17549 ft | 465 kts | 33° |
| 2026-05-06 05:22 | 30.19740 | -95.17116 | 18175 ft | 469 kts | 31° |
| 2026-05-06 05:22 | 30.22452 | -95.14975 | 18814 ft | 473 kts | 30° |
| 2026-05-06 05:22 | 30.25206 | -95.12830 | 19376 ft | 478 kts | 30° |
| 2026-05-06 05:23 | 30.27921 | -95.10653 | 19956 ft | 484 kts | 31° |
| 2026-05-06 05:23 | 30.30699 | -95.08389 | 20522 ft | 489 kts | 30° |
| 2026-05-06 05:23 | 30.36359 | -95.03858 | 21553 ft | 498 kts | 29° |
| 2026-05-06 05:24 | 30.39189 | -95.01594 | 22060 ft | 502 kts | 30° |
| 2026-05-06 05:24 | 30.42108 | -94.99339 | 22525 ft | 505 kts | 27° |
| 2026-05-06 05:24 | 30.45058 | -94.97082 | 22989 ft | 510 kts | 28° |
| 2026-05-06 05:24 | 30.48020 | -94.94770 | 23466 ft | 513 kts | 28° |
| 2026-05-06 05:25 | 30.51009 | -94.92475 | 23933 ft | 516 kts | 27° |
| 2026-05-06 05:25 | 30.54004 | -94.90203 | 24335 ft | 520 kts | 27° |
| 2026-05-06 05:25 | 30.57047 | -94.87881 | 24762 ft | 524 kts | 27° |
| 2026-05-06 05:25 | 30.60102 | -94.85524 | 25171 ft | 528 kts | 27° |
| 2026-05-06 05:26 | 30.63183 | -94.83145 | 25582 ft | 531 kts | 27° |
| 2026-05-06 05:26 | 30.66241 | -94.80798 | 26013 ft | 534 kts | 27° |
| 2026-05-06 05:26 | 30.69358 | -94.78407 | 26385 ft | 537 kts | 27° |
| 2026-05-06 05:26 | 30.72490 | -94.75992 | 26750 ft | 541 kts | 27° |
| 2026-05-06 05:27 | 30.75638 | -94.73563 | 27117 ft | 544 kts | 27° |
| 2026-05-06 05:27 | 30.78818 | -94.71110 | 27458 ft | 548 kts | 26° |
| 2026-05-06 05:27 | 30.81968 | -94.68682 | 27790 ft | 551 kts | 26° |
| 2026-05-06 05:27 | 30.85178 | -94.66202 | 28152 ft | 554 kts | 27° |
| 2026-05-06 05:28 | 30.88398 | -94.63707 | 28490 ft | 557 kts | 26° |
| 2026-05-06 05:28 | 30.91642 | -94.61198 | 28820 ft | 560 kts | 26° |
| 2026-05-06 05:28 | 30.94897 | -94.58678 | 29144 ft | 563 kts | 26° |
| 2026-05-06 05:28 | 30.98011 | -94.55918 | 29488 ft | 576 kts | 36° |
| 2026-05-06 05:29 | 31.00802 | -94.52503 | 29781 ft | 589 kts | 46° |
| 2026-05-06 05:29 | 31.03123 | -94.48529 | 30216 ft | 597 kts | 57° |
| 2026-05-06 05:29 | 31.05045 | -94.44219 | 30682 ft | 599 kts | 59° |
| 2026-05-06 05:29 | 31.06913 | -94.39869 | 31141 ft | 599 kts | 60° |
| 2026-05-06 05:30 | 31.08766 | -94.35495 | 31550 ft | 600 kts | 60° |
| 2026-05-06 05:30 | 31.10635 | -94.31134 | 32015 ft | 600 kts | 59° |
| 2026-05-06 05:30 | 31.12495 | -94.26840 | 32477 ft | 599 kts | 60° |
| 2026-05-06 05:30 | 31.14367 | -94.22479 | 32924 ft | 600 kts | 60° |
| 2026-05-06 05:31 | 31.16236 | -94.18089 | 33319 ft | 601 kts | 60° |
| 2026-05-06 05:31 | 31.18098 | -94.13720 | 33738 ft | 601 kts | 60° |
| 2026-05-06 05:31 | 31.19948 | -94.09400 | 34131 ft | 602 kts | 60° |
| 2026-05-06 05:31 | 31.21819 | -94.05024 | 34538 ft | 602 kts | 60° |
| 2026-05-06 05:32 | 31.23691 | -94.00621 | 34829 ft | 605 kts | 60° |
| 2026-05-06 05:32 | 31.25570 | -93.96196 | 34904 ft | 610 kts | 60° |
| 2026-05-06 05:32 | 31.29333 | -93.87336 | 34904 ft | 605 kts | 60° |
| 2026-05-06 05:33 | 31.32708 | -93.78311 | 34912 ft | 609 kts | 65° |
| 2026-05-06 05:33 | 31.35841 | -93.69092 | 34911 ft | 609 kts | 64° |
| 2026-05-06 05:34 | 31.39012 | -93.59949 | 34910 ft | 608 kts | 65° |
| 2026-05-06 05:34 | 31.42155 | -93.50727 | 34908 ft | 608 kts | 65° |
| 2026-05-06 05:35 | 31.45306 | -93.41529 | 34907 ft | 607 kts | 65° |
| 2026-05-06 05:35 | 31.48417 | -93.32391 | 34906 ft | 607 kts | 65° |
| 2026-05-06 05:36 | 31.51542 | -93.23194 | 34906 ft | 606 kts | 65° |
| 2026-05-06 05:36 | 31.54652 | -93.14020 | 34905 ft | 605 kts | 65° |
| 2026-05-06 05:37 | 31.57752 | -93.04849 | 34907 ft | 604 kts | 65° |
| 2026-05-06 05:37 | 31.60827 | -92.95723 | 34905 ft | 603 kts | 65° |
| 2026-05-06 05:38 | 31.63908 | -92.86555 | 34906 ft | 602 kts | 65° |
| 2026-05-06 05:38 | 31.66977 | -92.77395 | 34906 ft | 602 kts | 65° |
| 2026-05-06 05:39 | 31.70019 | -92.68293 | 34908 ft | 601 kts | 65° |
| 2026-05-06 05:39 | 31.73067 | -92.59153 | 34912 ft | 601 kts | 65° |
| 2026-05-06 05:40 | 31.76112 | -92.49986 | 34914 ft | 602 kts | 65° |
| 2026-05-06 05:40 | 31.79153 | -92.40811 | 34916 ft | 602 kts | 65° |
| 2026-05-06 05:41 | 31.82173 | -92.31689 | 34919 ft | 602 kts | 65° |
| 2026-05-06 05:41 | 31.85202 | -92.22473 | 34912 ft | 602 kts | 64° |
| 2026-05-06 05:42 | 31.88221 | -92.13308 | 34914 ft | 603 kts | 65° |
| 2026-05-06 05:42 | 31.91234 | -92.04094 | 34915 ft | 603 kts | 65° |
| 2026-05-06 05:43 | 31.94251 | -91.94862 | 34921 ft | 603 kts | 65° |
| 2026-05-06 05:43 | 31.97263 | -91.85625 | 34922 ft | 603 kts | 65° |
| 2026-05-06 05:44 | 32.00240 | -91.76455 | 34930 ft | 603 kts | 65° |
| 2026-05-06 05:44 | 32.03233 | -91.67228 | 34929 ft | 603 kts | 65° |
| 2026-05-06 05:45 | 32.06212 | -91.57987 | 34926 ft | 602 kts | 66° |
| 2026-05-06 05:45 | 32.07392 | -91.53230 | 34962 ft | 607 kts | 77° |
| 2026-05-06 05:45 | 32.08054 | -91.48307 | 34940 ft | 610 kts | 79° |
| 2026-05-06 05:46 | 32.09235 | -91.38376 | 34949 ft | 610 kts | 80° |
| 2026-05-06 05:46 | 32.10447 | -91.28468 | 34940 ft | 610 kts | 79° |
| 2026-05-06 05:47 | 32.11636 | -91.18564 | 34932 ft | 609 kts | 80° |
| 2026-05-06 05:47 | 32.12815 | -91.08673 | 34922 ft | 608 kts | 79° |
| 2026-05-06 05:48 | 32.13982 | -90.98849 | 34917 ft | 608 kts | 79° |
| 2026-05-06 05:48 | 32.15143 | -90.88959 | 34917 ft | 607 kts | 79° |
| 2026-05-06 05:49 | 32.16301 | -90.79095 | 34917 ft | 607 kts | 79° |
| 2026-05-06 05:49 | 32.17440 | -90.69286 | 34917 ft | 605 kts | 79° |
| 2026-05-06 05:50 | 32.18573 | -90.59435 | 34917 ft | 605 kts | 79° |
| 2026-05-06 05:50 | 32.19703 | -90.49589 | 34926 ft | 605 kts | 79° |
| 2026-05-06 05:51 | 32.20819 | -90.39744 | 34926 ft | 603 kts | 79° |
| 2026-05-06 05:51 | 32.21934 | -90.29917 | 34929 ft | 603 kts | 79° |
| 2026-05-06 05:52 | 32.23027 | -90.20155 | 34941 ft | 603 kts | 79° |
| 2026-05-06 05:52 | 32.24121 | -90.10327 | 34948 ft | 603 kts | 79° |
| 2026-05-06 05:53 | 32.25205 | -90.00496 | 34948 ft | 603 kts | 79° |
| 2026-05-06 05:53 | 32.26285 | -89.90667 | 34945 ft | 603 kts | 80° |
| 2026-05-06 05:54 | 32.27358 | -89.80830 | 34947 ft | 603 kts | 80° |
| 2026-05-06 05:54 | 32.28420 | -89.71002 | 34943 ft | 603 kts | 80° |
| 2026-05-06 05:55 | 32.29471 | -89.61219 | 34947 ft | 603 kts | 80° |
| 2026-05-06 05:55 | 32.30521 | -89.51371 | 34944 ft | 602 kts | 80° |
| 2026-05-06 05:56 | 32.31558 | -89.41551 | 34958 ft | 602 kts | 80° |
| 2026-05-06 05:56 | 32.32587 | -89.31736 | 34957 ft | 602 kts | 80° |
| 2026-05-06 05:57 | 32.33613 | -89.21902 | 34955 ft | 602 kts | 80° |
| 2026-05-06 05:57 | 32.34625 | -89.12103 | 34958 ft | 601 kts | 80° |
| 2026-05-06 05:58 | 32.35630 | -89.02297 | 34956 ft | 600 kts | 80° |
| 2026-05-06 05:58 | 32.36622 | -88.92558 | 34955 ft | 599 kts | 80° |
| 2026-05-06 05:59 | 32.37727 | -88.82802 | 34972 ft | 594 kts | 72° |
| 2026-05-06 05:59 | 32.38936 | -88.78149 | 34984 ft | 586 kts | 61° |
| 2026-05-06 05:59 | 32.40652 | -88.73815 | 34971 ft | 581 kts | 57° |
| 2026-05-06 06:00 | 32.44287 | -88.65290 | 34975 ft | 578 kts | 57° |
| 2026-05-06 06:00 | 32.47895 | -88.56771 | 34977 ft | 578 kts | 57° |
| 2026-05-06 06:01 | 32.51491 | -88.48265 | 34982 ft | 577 kts | 57° |
| 2026-05-06 06:01 | 32.55062 | -88.39803 | 34980 ft | 577 kts | 57° |
| 2026-05-06 06:02 | 32.58645 | -88.31292 | 34980 ft | 577 kts | 57° |
| 2026-05-06 06:02 | 32.62223 | -88.22769 | 34981 ft | 578 kts | 57° |
| 2026-05-06 06:03 | 32.65791 | -88.14237 | 34979 ft | 577 kts | 57° |
| 2026-05-06 06:03 | 32.69359 | -88.05714 | 34978 ft | 576 kts | 57° |
| 2026-05-06 06:04 | 32.72922 | -87.97166 | 34979 ft | 578 kts | 57° |
| 2026-05-06 06:04 | 32.76474 | -87.88611 | 34983 ft | 576 kts | 57° |
| 2026-05-06 06:05 | 32.80022 | -87.80069 | 34982 ft | 576 kts | 57° |
| 2026-05-06 06:05 | 32.83540 | -87.71565 | 34982 ft | 577 kts | 57° |
| 2026-05-06 06:06 | 32.87091 | -87.62960 | 34986 ft | 579 kts | 57° |
| 2026-05-06 06:06 | 32.90636 | -87.54351 | 34982 ft | 579 kts | 57° |
| 2026-05-06 06:07 | 32.93577 | -87.47189 | 34980 ft | 580 kts | 57° |
| 2026-05-06 06:07 | 32.97112 | -87.38568 | 34977 ft | 579 kts | 57° |
| 2026-05-06 06:08 | 33.00642 | -87.29941 | 34981 ft | 583 kts | 57° |
| 2026-05-06 06:08 | 33.04191 | -87.21226 | 34983 ft | 583 kts | 57° |
| 2026-05-06 06:09 | 33.07736 | -87.12523 | 34982 ft | 583 kts | 58° |
| 2026-05-06 06:09 | 33.11257 | -87.03842 | 35006 ft | 583 kts | 57° |
| 2026-05-06 06:10 | 33.14195 | -86.96591 | 35002 ft | 583 kts | 57° |
| 2026-05-06 06:10 | 33.17726 | -86.87846 | 34997 ft | 584 kts | 58° |
| 2026-05-06 06:11 | 33.21247 | -86.79108 | 34992 ft | 582 kts | 57° |
| 2026-05-06 06:11 | 33.24726 | -86.70447 | 34996 ft | 581 kts | 57° |
| 2026-05-06 06:12 | 33.28226 | -86.61726 | 34993 ft | 582 kts | 57° |
| 2026-05-06 06:12 | 33.31733 | -86.52952 | 34996 ft | 584 kts | 57° |
| 2026-05-06 06:13 | 33.35214 | -86.44230 | 35001 ft | 584 kts | 58° |
| 2026-05-06 06:13 | 33.38709 | -86.35438 | 34997 ft | 585 kts | 57° |
| 2026-05-06 06:14 | 33.42200 | -86.26645 | 35007 ft | 584 kts | 57° |
| 2026-05-06 06:14 | 33.45655 | -86.17913 | 35003 ft | 583 kts | 57° |
| 2026-05-06 06:15 | 33.49125 | -86.09117 | 35005 ft | 583 kts | 57° |
| 2026-05-06 06:15 | 33.52607 | -86.00286 | 35005 ft | 585 kts | 57° |
| 2026-05-06 06:16 | 33.56057 | -85.91492 | 35000 ft | 584 kts | 57° |
| 2026-05-06 06:16 | 33.59496 | -85.82717 | 35007 ft | 583 kts | 57° |
| 2026-05-06 06:17 | 33.62945 | -85.73888 | 35005 ft | 583 kts | 57° |
| 2026-05-06 06:17 | 33.66383 | -85.65062 | 35004 ft | 583 kts | 57° |
| 2026-05-06 06:18 | 33.69818 | -85.56226 | 35007 ft | 584 kts | 57° |
| 2026-05-06 06:18 | 33.73251 | -85.47370 | 35013 ft | 584 kts | 58° |
| 2026-05-06 06:19 | 33.76659 | -85.38555 | 35021 ft | 584 kts | 58° |
| 2026-05-06 06:19 | 33.80078 | -85.29685 | 35028 ft | 581 kts | 58° |
| 2026-05-06 06:20 | 33.83451 | -85.20913 | 35029 ft | 580 kts | 58° |
| 2026-05-06 06:20 | 33.86833 | -85.12095 | 35027 ft | 579 kts | 57° |
| 2026-05-06 06:21 | 33.90199 | -85.03304 | 35025 ft | 578 kts | 58° |
| 2026-05-06 06:21 | 33.93553 | -84.94503 | 35016 ft | 577 kts | 58° |
| 2026-05-06 06:22 | 33.96902 | -84.85711 | 35014 ft | 578 kts | 58° |
| 2026-05-06 06:22 | 34.00247 | -84.76889 | 35018 ft | 578 kts | 57° |
| 2026-05-06 06:23 | 34.03565 | -84.68126 | 35576 ft | 573 kts | 57° |
| 2026-05-06 06:23 | 34.05209 | -84.63764 | 36035 ft | 572 kts | 57° |
| 2026-05-06 06:23 | 34.06864 | -84.59385 | 36395 ft | 572 kts | 57° |
| 2026-05-06 06:24 | 34.08515 | -84.55011 | 36751 ft | 573 kts | 57° |
| 2026-05-06 06:24 | 34.10162 | -84.50630 | 37095 ft | 573 kts | 57° |
| 2026-05-06 06:24 | 34.11804 | -84.46253 | 37416 ft | 573 kts | 57° |
| 2026-05-06 06:24 | 34.13449 | -84.41869 | 37759 ft | 572 kts | 57° |
| 2026-05-06 06:25 | 34.15092 | -84.37492 | 38018 ft | 573 kts | 57° |
| 2026-05-06 06:25 | 34.16734 | -84.33110 | 38316 ft | 572 kts | 57° |
| 2026-05-06 06:25 | 34.19981 | -84.24404 | 38812 ft | 572 kts | 57° |
| 2026-05-06 06:26 | 34.21621 | -84.20008 | 39008 ft | 573 kts | 57° |
| 2026-05-06 06:26 | 34.24905 | -84.11179 | 39033 ft | 575 kts | 57° |
| 2026-05-06 06:27 | 34.28166 | -84.02380 | 39032 ft | 570 kts | 57° |
| 2026-05-06 06:27 | 34.31388 | -83.93681 | 39039 ft | 569 kts | 57° |
| 2026-05-06 06:28 | 34.34620 | -83.84916 | 39036 ft | 569 kts | 57° |
| 2026-05-06 06:28 | 34.37846 | -83.76152 | 39034 ft | 569 kts | 57° |
| 2026-05-06 06:29 | 34.41060 | -83.67396 | 39032 ft | 568 kts | 57° |
| 2026-05-06 06:29 | 34.44258 | -83.58660 | 39029 ft | 566 kts | 57° |
| 2026-05-06 06:30 | 34.47444 | -83.49937 | 39031 ft | 566 kts | 57° |
| 2026-05-06 06:30 | 34.50623 | -83.41198 | 39032 ft | 567 kts | 57° |
| 2026-05-06 06:31 | 34.53784 | -83.32496 | 39034 ft | 567 kts | 58° |
| 2026-05-06 06:31 | 34.56944 | -83.23756 | 39041 ft | 565 kts | 57° |
| 2026-05-06 06:32 | 34.60104 | -83.15011 | 39040 ft | 563 kts | 57° |
| 2026-05-06 06:32 | 34.63229 | -83.06342 | 39041 ft | 562 kts | 58° |
| 2026-05-06 06:33 | 34.66350 | -82.97623 | 39008 ft | 561 kts | 58° |
| 2026-05-06 06:33 | 34.69471 | -82.88936 | 39016 ft | 560 kts | 58° |
| 2026-05-06 06:34 | 34.72549 | -82.80305 | 39012 ft | 559 kts | 58° |
| 2026-05-06 06:34 | 34.75642 | -82.71630 | 39026 ft | 559 kts | 58° |
| 2026-05-06 06:35 | 34.78728 | -82.62930 | 39028 ft | 559 kts | 58° |
| 2026-05-06 06:35 | 34.81803 | -82.54257 | 39019 ft | 557 kts | 58° |
| 2026-05-06 06:36 | 34.84862 | -82.45591 | 39027 ft | 557 kts | 58° |
| 2026-05-06 06:36 | 34.87921 | -82.36922 | 39029 ft | 557 kts | 58° |
| 2026-05-06 06:37 | 34.90967 | -82.28231 | 39028 ft | 558 kts | 58° |
| 2026-05-06 06:37 | 34.94020 | -82.19531 | 39032 ft | 558 kts | 58° |
| 2026-05-06 06:38 | 34.97040 | -82.10877 | 39035 ft | 559 kts | 58° |
| 2026-05-06 06:38 | 35.00081 | -82.02152 | 39028 ft | 559 kts | 58° |
| 2026-05-06 06:39 | 35.03113 | -81.93414 | 39021 ft | 558 kts | 60° |
| 2026-05-06 06:39 | 35.05692 | -81.84457 | 39008 ft | 558 kts | 63° |
| 2026-05-06 06:40 | 35.08218 | -81.75483 | 39016 ft | 558 kts | 63° |
| 2026-05-06 06:40 | 35.10737 | -81.66495 | 39015 ft | 559 kts | 63° |
| 2026-05-06 06:41 | 35.13237 | -81.57546 | 39009 ft | 560 kts | 63° |
| 2026-05-06 06:41 | 35.15761 | -81.48505 | 39018 ft | 560 kts | 63° |
| 2026-05-06 06:42 | 35.18250 | -81.39535 | 39021 ft | 558 kts | 63° |
| 2026-05-06 06:42 | 35.20742 | -81.30527 | 39029 ft | 557 kts | 63° |
| 2026-05-06 06:43 | 35.23213 | -81.21573 | 39030 ft | 557 kts | 63° |
| 2026-05-06 06:43 | 35.25684 | -81.12589 | 39034 ft | 557 kts | 63° |
| 2026-05-06 06:44 | 35.28146 | -81.03591 | 39030 ft | 555 kts | 63° |
| 2026-05-06 06:44 | 35.30599 | -80.94639 | 39041 ft | 555 kts | 63° |
| 2026-05-06 06:45 | 35.33029 | -80.85699 | 39045 ft | 556 kts | 63° |
| 2026-05-06 06:45 | 35.35477 | -80.76689 | 39048 ft | 555 kts | 63° |
| 2026-05-06 06:46 | 35.37894 | -80.67763 | 39060 ft | 553 kts | 63° |
| 2026-05-06 06:46 | 35.40312 | -80.58777 | 39057 ft | 553 kts | 63° |
| 2026-05-06 06:47 | 35.42704 | -80.49866 | 39055 ft | 552 kts | 63° |
| 2026-05-06 06:47 | 35.45110 | -80.40902 | 39055 ft | 552 kts | 63° |
| 2026-05-06 06:48 | 35.47481 | -80.32008 | 39058 ft | 553 kts | 64° |
| 2026-05-06 06:48 | 35.49878 | -80.23004 | 39060 ft | 553 kts | 63° |
| 2026-05-06 06:49 | 35.52257 | -80.14030 | 39063 ft | 554 kts | 63° |
| 2026-05-06 06:49 | 35.54631 | -80.05041 | 39064 ft | 552 kts | 63° |
| 2026-05-06 06:50 | 35.56981 | -79.96121 | 39064 ft | 551 kts | 64° |
| 2026-05-06 06:50 | 35.59328 | -79.87170 | 39057 ft | 549 kts | 63° |
| 2026-05-06 06:51 | 35.61669 | -79.78232 | 39053 ft | 549 kts | 64° |
| 2026-05-06 06:51 | 35.63989 | -79.69325 | 39053 ft | 550 kts | 64° |
| 2026-05-06 06:52 | 35.66318 | -79.60357 | 39056 ft | 550 kts | 64° |
| 2026-05-06 06:52 | 35.68633 | -79.51416 | 39054 ft | 551 kts | 64° |
| 2026-05-06 06:53 | 35.70952 | -79.42424 | 39057 ft | 551 kts | 64° |
| 2026-05-06 06:53 | 35.73265 | -79.33419 | 39053 ft | 550 kts | 64° |
| 2026-05-06 06:54 | 35.75553 | -79.24498 | 39051 ft | 547 kts | 64° |
| 2026-05-06 06:54 | 35.77837 | -79.15548 | 39048 ft | 546 kts | 64° |
| 2026-05-06 06:55 | 35.80097 | -79.06668 | 39046 ft | 545 kts | 64° |
| 2026-05-06 06:55 | 35.81980 | -78.99248 | 39055 ft | 543 kts | 64° |
| 2026-05-06 06:56 | 35.84223 | -78.90372 | 39056 ft | 545 kts | 64° |
| 2026-05-06 06:56 | 35.86474 | -78.81435 | 39060 ft | 544 kts | 64° |
| 2026-05-06 06:56 | 35.87778 | -78.77101 | 39084 ft | 532 kts | 54° |
| 2026-05-06 06:57 | 35.89422 | -78.73025 | 39064 ft | 529 kts | 54° |
| 2026-05-06 06:57 | 35.92753 | -78.64940 | 39067 ft | 529 kts | 54° |
| 2026-05-06 06:58 | 35.96037 | -78.56864 | 39062 ft | 528 kts | 54° |
| 2026-05-06 06:58 | 35.99337 | -78.48792 | 39060 ft | 526 kts | 54° |
| 2026-05-06 06:59 | 36.02621 | -78.40689 | 39056 ft | 526 kts | 54° |
| 2026-05-06 06:59 | 36.05893 | -78.32628 | 39059 ft | 528 kts | 54° |
| 2026-05-06 07:00 | 36.09189 | -78.24480 | 39065 ft | 530 kts | 54° |
| 2026-05-06 07:00 | 36.12478 | -78.16323 | 39068 ft | 527 kts | 54° |
| 2026-05-06 07:01 | 36.15747 | -78.08201 | 39064 ft | 525 kts | 54° |
| 2026-05-06 07:01 | 36.18991 | -78.00132 | 39062 ft | 526 kts | 54° |
| 2026-05-06 07:02 | 36.22239 | -77.92003 | 39060 ft | 526 kts | 54° |
| 2026-05-06 07:02 | 36.25499 | -77.83863 | 39061 ft | 526 kts | 54° |
| 2026-05-06 07:03 | 36.28720 | -77.75758 | 39054 ft | 528 kts | 54° |
| 2026-05-06 07:03 | 36.31984 | -77.67565 | 39046 ft | 529 kts | 54° |
| 2026-05-06 07:04 | 36.35216 | -77.59386 | 39043 ft | 530 kts | 54° |
| 2026-05-06 07:04 | 36.38475 | -77.51157 | 39042 ft | 529 kts | 55° |
| 2026-05-06 07:05 | 36.41695 | -77.42986 | 39040 ft | 528 kts | 55° |
| 2026-05-06 07:05 | 36.44918 | -77.34792 | 39039 ft | 526 kts | 55° |
| 2026-05-06 07:06 | 36.48104 | -77.26673 | 39040 ft | 525 kts | 55° |
| 2026-05-06 07:06 | 36.51304 | -77.18497 | 39040 ft | 526 kts | 55° |
| 2026-05-06 07:07 | 36.54503 | -77.10301 | 39044 ft | 527 kts | 56° |
| 2026-05-06 07:07 | 36.57698 | -77.02092 | 39054 ft | 527 kts | 56° |
| 2026-05-06 07:08 | 36.60871 | -76.93922 | 39055 ft | 527 kts | 56° |
| 2026-05-06 07:08 | 36.64053 | -76.85697 | 39056 ft | 526 kts | 56° |
| 2026-05-06 07:09 | 36.67229 | -76.77488 | 39052 ft | 525 kts | 56° |
| 2026-05-06 07:09 | 36.70365 | -76.69346 | 39049 ft | 524 kts | 56° |
| 2026-05-06 07:10 | 36.73507 | -76.61166 | 39048 ft | 524 kts | 56° |
| 2026-05-06 07:10 | 36.76652 | -76.52965 | 39048 ft | 524 kts | 56° |
| 2026-05-06 07:11 | 36.79791 | -76.44755 | 39048 ft | 523 kts | 56° |
| 2026-05-06 07:11 | 36.82916 | -76.36556 | 39047 ft | 523 kts | 56° |
| 2026-05-06 07:12 | 36.86037 | -76.28352 | 39047 ft | 523 kts | 57° |
| 2026-05-06 07:12 | 36.88738 | -76.19850 | 39053 ft | 538 kts | 71° |
| 2026-05-06 07:12 | 36.89307 | -76.15231 | 39059 ft | 549 kts | 82° |
| 2026-05-06 07:13 | 36.89468 | -76.10441 | 39043 ft | 552 kts | 82° |
| 2026-05-06 07:13 | 36.89704 | -76.00872 | 39054 ft | 553 kts | 83° |
| 2026-05-06 07:14 | 36.89960 | -75.91273 | 39055 ft | 549 kts | 83° |
| 2026-05-06 07:14 | 36.90197 | -75.81746 | 39053 ft | 546 kts | 83° |
| 2026-05-06 07:15 | 36.90433 | -75.72255 | 39051 ft | 547 kts | 82° |
| 2026-05-06 07:15 | 36.90661 | -75.62792 | 39054 ft | 548 kts | 83° |
| 2026-05-06 07:16 | 36.90879 | -75.53259 | 39057 ft | 548 kts | 83° |
| 2026-05-06 07:16 | 36.91078 | -75.43759 | 39055 ft | 549 kts | 83° |
| 2026-05-06 07:17 | 36.91339 | -75.34248 | 39051 ft | 546 kts | 81° |
| 2026-05-06 07:17 | 36.91649 | -75.24730 | 39042 ft | 547 kts | 82° |
| 2026-05-06 07:18 | 36.91842 | -75.15253 | 39041 ft | 547 kts | 83° |
| 2026-05-06 07:18 | 36.92047 | -75.05759 | 39043 ft | 547 kts | 84° |
| 2026-05-06 07:19 | 36.92156 | -74.96245 | 39045 ft | 547 kts | 83° |
| 2026-05-06 07:19 | 36.92314 | -74.86748 | 39045 ft | 546 kts | 83° |
| 2026-05-06 07:20 | 36.92428 | -74.77262 | 39043 ft | 545 kts | 83° |
| 2026-05-06 07:20 | 36.92560 | -74.67844 | 39040 ft | 544 kts | 83° |
| 2026-05-06 07:21 | 36.92664 | -74.58377 | 39037 ft | 544 kts | 83° |
| 2026-05-06 07:21 | 36.92774 | -74.48936 | 39039 ft | 543 kts | 83° |
| 2026-05-06 07:22 | 36.92876 | -74.39480 | 39044 ft | 544 kts | 84° |
| 2026-05-06 07:22 | 36.93042 | -74.30025 | 39047 ft | 545 kts | 83° |
| 2026-05-06 07:23 | 36.93157 | -74.20609 | 39050 ft | 546 kts | 84° |
| 2026-05-06 07:23 | 36.93291 | -74.11118 | 39051 ft | 545 kts | 83° |
| 2026-05-06 07:24 | 36.93404 | -74.01647 | 39050 ft | 544 kts | 84° |
| 2026-05-06 07:24 | 36.93513 | -73.92198 | 39045 ft | 541 kts | 83° |
| 2026-05-06 07:25 | 36.93618 | -73.82814 | 39040 ft | 540 kts | 84° |
| 2026-05-06 07:25 | 36.93709 | -73.73429 | 39039 ft | 540 kts | 83° |
| 2026-05-06 07:26 | 36.93747 | -73.64022 | 39040 ft | 541 kts | 85° |
| 2026-05-06 07:26 | 36.93740 | -73.54678 | 39041 ft | 541 kts | 84° |
| 2026-05-06 07:27 | 36.93765 | -73.45262 | 39042 ft | 541 kts | 84° |
| 2026-05-06 07:27 | 36.93796 | -73.35894 | 39044 ft | 541 kts | 84° |
| 2026-05-06 07:28 | 36.93814 | -73.26473 | 39041 ft | 541 kts | 84° |
| 2026-05-06 07:28 | 36.93845 | -73.12372 | 39038 ft | 540 kts | 84° |
| 2026-05-06 07:29 | 36.93852 | -73.02994 | 39038 ft | 539 kts | 84° |
| 2026-05-06 07:29 | 36.94080 | -72.93659 | 39042 ft | 537 kts | 82° |
| 2026-05-06 07:30 | 36.94349 | -72.84325 | 39042 ft | 536 kts | 82° |
| 2026-05-06 07:30 | 36.94659 | -72.75072 | 39042 ft | 536 kts | 82° |
| 2026-05-06 07:31 | 36.94933 | -72.65762 | 39041 ft | 536 kts | 82° |
| 2026-05-06 07:31 | 36.95216 | -72.56443 | 39043 ft | 536 kts | 82° |
| 2026-05-06 07:32 | 36.95485 | -72.47125 | 39043 ft | 536 kts | 82° |
| 2026-05-06 07:32 | 36.95754 | -72.37818 | 39042 ft | 536 kts | 82° |
| 2026-05-06 07:33 | 36.96001 | -72.28501 | 39045 ft | 535 kts | 82° |
| 2026-05-06 07:33 | 36.96255 | -72.19189 | 39043 ft | 536 kts | 82° |
| 2026-05-06 07:34 | 36.96494 | -72.09833 | 39045 ft | 537 kts | 82° |
| 2026-05-06 07:34 | 36.96732 | -72.00487 | 39047 ft | 537 kts | 83° |
| 2026-05-06 07:35 | 36.96954 | -71.91171 | 39043 ft | 533 kts | 83° |
| 2026-05-06 07:35 | 36.97173 | -71.81995 | 39040 ft | 530 kts | 83° |
| 2026-05-06 07:36 | 36.97383 | -71.72768 | 39038 ft | 531 kts | 83° |
| 2026-05-06 07:36 | 36.97582 | -71.63541 | 39041 ft | 530 kts | 83° |
| 2026-05-06 07:37 | 36.97786 | -71.54318 | 39042 ft | 531 kts | 84° |
| 2026-05-06 07:37 | 36.97970 | -71.45076 | 39044 ft | 530 kts | 84° |
| 2026-05-06 07:38 | 36.98150 | -71.35915 | 39053 ft | 528 kts | 84° |
| 2026-05-06 07:38 | 36.98321 | -71.26780 | 39046 ft | 525 kts | 85° |
| 2026-05-06 07:39 | 36.98471 | -71.17661 | 39054 ft | 525 kts | 83° |
| 2026-05-06 07:39 | 36.98666 | -71.08480 | 39054 ft | 528 kts | 85° |
| 2026-05-06 07:40 | 36.98790 | -70.99335 | 39056 ft | 527 kts | 84° |
| 2026-05-06 07:40 | 36.98954 | -70.90201 | 39054 ft | 525 kts | 85° |
| 2026-05-06 07:41 | 36.99078 | -70.81085 | 39050 ft | 523 kts | 85° |
| 2026-05-06 07:41 | 36.99218 | -70.72002 | 39048 ft | 522 kts | 85° |
| 2026-05-06 07:42 | 36.99316 | -70.64445 | 39051 ft | 523 kts | 85° |
| 2026-05-06 07:42 | 36.99438 | -70.55350 | 39054 ft | 523 kts | 85° |
| 2026-05-06 07:43 | 36.99544 | -70.46248 | 39057 ft | 523 kts | 85° |
| 2026-05-06 07:43 | 36.99650 | -70.37169 | 39051 ft | 521 kts | 85° |
| 2026-05-06 07:44 | 36.99742 | -70.28181 | 39046 ft | 518 kts | 86° |
| 2026-05-06 07:44 | 36.99834 | -70.19161 | 39046 ft | 519 kts | 85° |
| 2026-05-06 07:45 | 36.99917 | -70.10107 | 39049 ft | 520 kts | 86° |
| 2026-05-06 07:45 | 37.00045 | -70.01045 | 39059 ft | 518 kts | 79° |
| 2026-05-06 07:46 | 37.01517 | -69.92310 | 39068 ft | 511 kts | 72° |
| 2026-05-06 07:46 | 37.03228 | -69.83735 | 39052 ft | 509 kts | 73° |
| 2026-05-06 07:47 | 37.04919 | -69.75121 | 39051 ft | 508 kts | 73° |
| 2026-05-06 07:47 | 37.06612 | -69.66519 | 39051 ft | 509 kts | 73° |
| 2026-05-06 07:48 | 37.08294 | -69.57893 | 39055 ft | 510 kts | 73° |
| 2026-05-06 07:48 | 37.09973 | -69.49264 | 39055 ft | 510 kts | 73° |
| 2026-05-06 07:49 | 37.11635 | -69.40698 | 39049 ft | 509 kts | 73° |
| 2026-05-06 07:49 | 37.13298 | -69.32061 | 39051 ft | 510 kts | 73° |
| 2026-05-06 07:50 | 37.14964 | -69.23413 | 39052 ft | 511 kts | 73° |
| 2026-05-06 07:50 | 37.16622 | -69.14726 | 39054 ft | 512 kts | 74° |
| 2026-05-06 07:51 | 37.18280 | -69.06037 | 39056 ft | 513 kts | 74° |
| 2026-05-06 07:51 | 37.19920 | -68.97391 | 39059 ft | 514 kts | 74° |
| 2026-05-06 07:52 | 37.21561 | -68.88677 | 39059 ft | 512 kts | 75° |
| 2026-05-06 07:52 | 37.23204 | -68.79979 | 39061 ft | 511 kts | 75° |
| 2026-05-06 07:53 | 37.24827 | -68.71297 | 39062 ft | 510 kts | 75° |
| 2026-05-06 07:53 | 37.26453 | -68.62600 | 39063 ft | 512 kts | 75° |
| 2026-05-06 07:54 | 37.28051 | -68.53944 | 39065 ft | 513 kts | 75° |
| 2026-05-06 07:54 | 37.29681 | -68.45168 | 39066 ft | 513 kts | 75° |
| 2026-05-06 07:55 | 37.31274 | -68.36480 | 39066 ft | 513 kts | 75° |
| 2026-05-06 07:55 | 37.32877 | -68.27760 | 39065 ft | 512 kts | 76° |
| 2026-05-06 07:56 | 37.34467 | -68.19028 | 39062 ft | 512 kts | 76° |
| 2026-05-06 07:56 | 37.36054 | -68.10281 | 39060 ft | 512 kts | 76° |
| 2026-05-06 07:57 | 37.37629 | -68.01582 | 39062 ft | 513 kts | 76° |
| 2026-05-06 07:57 | 37.39206 | -67.92809 | 39066 ft | 514 kts | 77° |
| 2026-05-06 07:58 | 37.40770 | -67.84074 | 39068 ft | 515 kts | 77° |
| 2026-05-06 07:58 | 37.42341 | -67.75274 | 39071 ft | 515 kts | 77° |
| 2026-05-06 07:59 | 37.43907 | -67.66453 | 39069 ft | 515 kts | 77° |
| 2026-05-06 07:59 | 37.45466 | -67.57633 | 39068 ft | 515 kts | 76° |
| 2026-05-06 08:00 | 37.47003 | -67.48900 | 39069 ft | 514 kts | 77° |
| 2026-05-06 08:00 | 37.48542 | -67.40097 | 39065 ft | 514 kts | 77° |
| 2026-05-06 08:01 | 37.50068 | -67.31347 | 39063 ft | 513 kts | 78° |
| 2026-05-06 08:01 | 37.51594 | -67.22548 | 39064 ft | 514 kts | 77° |
| 2026-05-06 08:02 | 37.53118 | -67.13721 | 39066 ft | 515 kts | 78° |
| 2026-05-06 08:02 | 37.54638 | -67.04879 | 39068 ft | 516 kts | 78° |
| 2026-05-06 08:03 | 37.56144 | -66.96070 | 39069 ft | 517 kts | 78° |
| 2026-05-06 08:03 | 37.57660 | -66.87159 | 39067 ft | 517 kts | 78° |
| 2026-05-06 08:04 | 37.59162 | -66.78292 | 39065 ft | 516 kts | 78° |
| 2026-05-06 08:04 | 37.60648 | -66.69494 | 39064 ft | 516 kts | 79° |
| 2026-05-06 08:05 | 37.62132 | -66.60624 | 39065 ft | 517 kts | 79° |
| 2026-05-06 08:05 | 37.63622 | -66.51716 | 39067 ft | 517 kts | 79° |
| 2026-05-06 08:06 | 37.65087 | -66.42885 | 39066 ft | 515 kts | 79° |
| 2026-05-06 08:06 | 37.66552 | -66.34013 | 39063 ft | 515 kts | 79° |
| 2026-05-06 08:07 | 37.68006 | -66.25200 | 39062 ft | 516 kts | 79° |
| 2026-05-06 08:07 | 37.69462 | -66.16315 | 39066 ft | 516 kts | 79° |
| 2026-05-06 08:08 | 37.70903 | -66.07436 | 39065 ft | 515 kts | 80° |
| 2026-05-06 08:08 | 37.72337 | -65.98573 | 39064 ft | 514 kts | 79° |
| 2026-05-06 08:09 | 37.73766 | -65.89770 | 39069 ft | 515 kts | 80° |
| 2026-05-06 08:09 | 37.75181 | -65.80897 | 39072 ft | 516 kts | 80° |
| 2026-05-06 08:10 | 37.76607 | -65.71994 | 39076 ft | 517 kts | 80° |
| 2026-05-06 08:10 | 37.78022 | -65.63065 | 39082 ft | 519 kts | 80° |
| 2026-05-06 08:11 | 37.79439 | -65.54110 | 39084 ft | 519 kts | 81° |
| 2026-05-06 08:11 | 37.80847 | -65.45146 | 39077 ft | 519 kts | 81° |
| 2026-05-06 08:12 | 37.82251 | -65.36175 | 39080 ft | 520 kts | 81° |
| 2026-05-06 08:12 | 37.83655 | -65.27182 | 39074 ft | 521 kts | 81° |
| 2026-05-06 08:13 | 37.85032 | -65.18231 | 39070 ft | 522 kts | 82° |
| 2026-05-06 08:13 | 37.86426 | -65.09193 | 39076 ft | 524 kts | 82° |
| 2026-05-06 08:14 | 37.87816 | -65.00099 | 39073 ft | 527 kts | 82° |
| 2026-05-06 08:14 | 37.89209 | -64.90966 | 39079 ft | 530 kts | 82° |
| 2026-05-06 08:15 | 37.90597 | -64.81784 | 39081 ft | 532 kts | 83° |
| 2026-05-06 08:15 | 37.91988 | -64.72561 | 39070 ft | 534 kts | 83° |
| 2026-05-06 08:16 | 37.93374 | -64.63322 | 39069 ft | 534 kts | 83° |
| 2026-05-06 08:16 | 37.94747 | -64.54068 | 39067 ft | 535 kts | 83° |
| 2026-05-06 08:17 | 37.96125 | -64.44776 | 39068 ft | 537 kts | 84° |
| 2026-05-06 08:17 | 37.97490 | -64.35528 | 39073 ft | 538 kts | 83° |
| 2026-05-06 08:18 | 37.98852 | -64.26173 | 39061 ft | 539 kts | 84° |
| 2026-05-06 08:18 | 38.00216 | -64.16825 | 39066 ft | 539 kts | 84° |
| 2026-05-06 08:19 | 38.01571 | -64.07463 | 39063 ft | 540 kts | 84° |
| 2026-05-06 08:19 | 38.02905 | -63.98157 | 39065 ft | 539 kts | 84° |
| 2026-05-06 08:20 | 38.04252 | -63.88791 | 39067 ft | 539 kts | 84° |
| 2026-05-06 08:20 | 38.05589 | -63.79399 | 39068 ft | 540 kts | 84° |
| 2026-05-06 08:21 | 38.06917 | -63.69989 | 39077 ft | 540 kts | 84° |
| 2026-05-06 08:21 | 38.08221 | -63.60676 | 39064 ft | 538 kts | 84° |
| 2026-05-06 08:22 | 38.09528 | -63.51322 | 39063 ft | 538 kts | 84° |
| 2026-05-06 08:22 | 38.10835 | -63.41941 | 39067 ft | 538 kts | 84° |
| 2026-05-06 08:23 | 38.12121 | -63.32578 | 39089 ft | 538 kts | 84° |
| 2026-05-06 08:23 | 38.13405 | -63.23214 | 39100 ft | 538 kts | 84° |
| 2026-05-06 08:24 | 38.14682 | -63.13850 | 39119 ft | 538 kts | 84° |
| 2026-05-06 08:24 | 38.15951 | -63.04517 | 39133 ft | 537 kts | 84° |
| 2026-05-06 08:25 | 38.17204 | -62.95160 | 39131 ft | 537 kts | 84° |
| 2026-05-06 08:25 | 38.18456 | -62.85798 | 39130 ft | 537 kts | 84° |
| 2026-05-06 08:26 | 38.19705 | -62.76432 | 39130 ft | 538 kts | 85° |
| 2026-05-06 08:26 | 38.20938 | -62.67077 | 39139 ft | 540 kts | 85° |
| 2026-05-06 08:27 | 38.22176 | -62.57639 | 39135 ft | 541 kts | 85° |
| 2026-05-06 08:27 | 38.23413 | -62.48164 | 39142 ft | 543 kts | 85° |
| 2026-05-06 08:28 | 38.24638 | -62.38699 | 39141 ft | 543 kts | 85° |
| 2026-05-06 08:28 | 38.25853 | -62.29262 | 39138 ft | 543 kts | 85° |
| 2026-05-06 08:29 | 38.27067 | -62.19795 | 39138 ft | 540 kts | 85° |
| 2026-05-06 08:29 | 38.28059 | -62.11950 | 39137 ft | 540 kts | 86° |
| 2026-05-06 08:30 | 38.29453 | -62.00931 | 39142 ft | 542 kts | 86° |
| 2026-05-06 08:30 | 38.30448 | -61.92978 | 39145 ft | 542 kts | 86° |
| 2026-05-06 08:31 | 38.31627 | -61.83495 | 39144 ft | 543 kts | 86° |
| 2026-05-06 08:31 | 38.32803 | -61.74042 | 39148 ft | 544 kts | 86° |
| 2026-05-06 08:32 | 38.33968 | -61.64511 | 39147 ft | 545 kts | 86° |
| 2026-05-06 08:32 | 38.35136 | -61.54973 | 39150 ft | 545 kts | 86° |
| 2026-05-06 08:33 | 38.36293 | -61.45419 | 39151 ft | 546 kts | 86° |
| 2026-05-06 08:33 | 38.37451 | -61.35843 | 39148 ft | 546 kts | 86° |
| 2026-05-06 08:34 | 38.39159 | -61.21501 | 39146 ft | 549 kts | 86° |
| 2026-05-06 08:35 | 38.40298 | -61.11843 | 39146 ft | 550 kts | 87° |
| 2026-05-06 08:35 | 38.41428 | -61.02216 | 39151 ft | 552 kts | 86° |
| 2026-05-06 08:36 | 38.42562 | -60.92503 | 39151 ft | 555 kts | 87° |
| 2026-05-06 08:36 | 38.43693 | -60.82706 | 39152 ft | 558 kts | 87° |
| 2026-05-06 08:37 | 38.44818 | -60.72898 | 39151 ft | 559 kts | 87° |
| 2026-05-06 08:37 | 38.45933 | -60.63139 | 39152 ft | 559 kts | 88° |
| 2026-05-06 08:38 | 38.47040 | -60.53300 | 39159 ft | 561 kts | 88° |
| 2026-05-06 08:38 | 38.48154 | -60.43408 | 39160 ft | 563 kts | 88° |
| 2026-05-06 08:39 | 38.49257 | -60.33495 | 39160 ft | 564 kts | 88° |
| 2026-05-06 08:39 | 38.51276 | -60.23722 | 39205 ft | 579 kts | 68° |
| 2026-05-06 08:40 | 38.54922 | -60.14536 | 39175 ft | 584 kts | 65° |
| 2026-05-06 08:40 | 38.58666 | -60.05293 | 39180 ft | 583 kts | 66° |
| 2026-05-06 08:41 | 38.62331 | -59.96109 | 39181 ft | 582 kts | 66° |
| 2026-05-06 08:41 | 38.66045 | -59.86851 | 39197 ft | 586 kts | 66° |
| 2026-05-06 08:42 | 38.69739 | -59.77564 | 39194 ft | 585 kts | 66° |
| 2026-05-06 08:42 | 38.73436 | -59.68270 | 39196 ft | 585 kts | 65° |
| 2026-05-06 08:43 | 38.77112 | -59.58997 | 39207 ft | 582 kts | 66° |
| 2026-05-06 08:43 | 38.80767 | -59.49733 | 39206 ft | 582 kts | 65° |
| 2026-05-06 08:44 | 38.84405 | -59.40510 | 39206 ft | 582 kts | 66° |
| 2026-05-06 08:44 | 38.88054 | -59.31218 | 39208 ft | 581 kts | 65° |
| 2026-05-06 08:45 | 38.91659 | -59.21997 | 39209 ft | 580 kts | 66° |
| 2026-05-06 08:45 | 38.95291 | -59.12697 | 39204 ft | 581 kts | 66° |
| 2026-05-06 08:46 | 38.98891 | -59.03447 | 39207 ft | 582 kts | 65° |
| 2026-05-06 08:46 | 39.02515 | -58.94101 | 39215 ft | 583 kts | 65° |
| 2026-05-06 08:47 | 39.06131 | -58.84756 | 39218 ft | 582 kts | 66° |
| 2026-05-06 08:47 | 39.09721 | -58.75438 | 39213 ft | 580 kts | 65° |
| 2026-05-06 08:48 | 39.13286 | -58.66160 | 39216 ft | 579 kts | 65° |
| 2026-05-06 08:48 | 39.16841 | -58.56889 | 39215 ft | 579 kts | 65° |
| 2026-05-06 08:49 | 39.20398 | -58.47577 | 39217 ft | 578 kts | 66° |
| 2026-05-06 08:49 | 39.23947 | -58.38255 | 39205 ft | 577 kts | 65° |
| 2026-05-06 08:50 | 39.27455 | -58.29017 | 39212 ft | 576 kts | 65° |
| 2026-05-06 08:50 | 39.30974 | -58.19710 | 39206 ft | 575 kts | 65° |
| 2026-05-06 08:51 | 39.34471 | -58.10456 | 39208 ft | 574 kts | 66° |
| 2026-05-06 08:51 | 39.37962 | -58.01164 | 39216 ft | 574 kts | 66° |
| 2026-05-06 08:52 | 39.41425 | -57.91933 | 39214 ft | 574 kts | 66° |
| 2026-05-06 08:52 | 39.44903 | -57.82623 | 39218 ft | 574 kts | 65° |
| 2026-05-06 08:53 | 39.48362 | -57.73354 | 39217 ft | 573 kts | 66° |
| 2026-05-06 08:53 | 39.51818 | -57.64016 | 39211 ft | 573 kts | 66° |
| 2026-05-06 08:54 | 39.55280 | -57.54703 | 39211 ft | 572 kts | 66° |
| 2026-05-06 08:54 | 39.58696 | -57.45424 | 39215 ft | 574 kts | 66° |
| 2026-05-06 08:55 | 39.62155 | -57.36040 | 39220 ft | 576 kts | 66° |
| 2026-05-06 08:55 | 39.65605 | -57.26623 | 39225 ft | 578 kts | 66° |
| 2026-05-06 08:56 | 39.69029 | -57.17264 | 39225 ft | 576 kts | 66° |
| 2026-05-06 08:56 | 39.72470 | -57.07828 | 39225 ft | 577 kts | 66° |
| 2026-05-06 08:57 | 39.75874 | -56.98445 | 39226 ft | 577 kts | 66° |
| 2026-05-06 08:57 | 39.79310 | -56.88962 | 39224 ft | 578 kts | 66° |
| 2026-05-06 08:58 | 39.82738 | -56.79463 | 39226 ft | 580 kts | 66° |
| 2026-05-06 08:58 | 39.86139 | -56.70008 | 39230 ft | 580 kts | 66° |
| 2026-05-06 08:59 | 39.89552 | -56.60505 | 39228 ft | 579 kts | 66° |
| 2026-05-06 08:59 | 39.92934 | -56.51020 | 39229 ft | 579 kts | 66° |
| 2026-05-06 09:00 | 39.96331 | -56.41499 | 39228 ft | 578 kts | 66° |
| 2026-05-06 09:00 | 39.99707 | -56.31992 | 39223 ft | 577 kts | 66° |
| 2026-05-06 09:01 | 40.03073 | -56.22475 | 39225 ft | 576 kts | 66° |
| 2026-05-06 09:01 | 40.06417 | -56.12997 | 39221 ft | 575 kts | 66° |
| 2026-05-06 09:02 | 40.09755 | -56.03506 | 39220 ft | 577 kts | 66° |
| 2026-05-06 09:02 | 40.13091 | -55.93976 | 39219 ft | 579 kts | 66° |
| 2026-05-06 09:03 | 40.16446 | -55.84370 | 39219 ft | 578 kts | 66° |
| 2026-05-06 09:03 | 40.19767 | -55.74838 | 39219 ft | 578 kts | 66° |
| 2026-05-06 09:04 | 40.23085 | -55.65266 | 39221 ft | 576 kts | 66° |
| 2026-05-06 09:04 | 40.26376 | -55.55752 | 39222 ft | 576 kts | 66° |
| 2026-05-06 09:05 | 40.29680 | -55.46163 | 39215 ft | 576 kts | 66° |
| 2026-05-06 09:05 | 40.32967 | -55.36593 | 39214 ft | 576 kts | 66° |
| 2026-05-06 09:06 | 40.36232 | -55.27054 | 39219 ft | 574 kts | 66° |
| 2026-05-06 09:06 | 40.39513 | -55.17436 | 39214 ft | 576 kts | 66° |
| 2026-05-06 09:07 | 40.42770 | -55.07864 | 39216 ft | 578 kts | 66° |
| 2026-05-06 09:07 | 40.46022 | -54.98247 | 39219 ft | 578 kts | 67° |
| 2026-05-06 09:08 | 40.49310 | -54.88522 | 39213 ft | 585 kts | 66° |
| 2026-05-06 09:08 | 40.52623 | -54.78670 | 39221 ft | 590 kts | 66° |
| 2026-05-06 09:09 | 40.55931 | -54.68820 | 39217 ft | 591 kts | 66° |
| 2026-05-06 09:09 | 40.59237 | -54.58911 | 39214 ft | 589 kts | 66° |
| 2026-05-06 09:10 | 40.62522 | -54.49049 | 39209 ft | 589 kts | 67° |
| 2026-05-06 09:10 | 40.65785 | -54.39225 | 39200 ft | 588 kts | 66° |
| 2026-05-06 09:11 | 40.69048 | -54.29322 | 39176 ft | 587 kts | 66° |
| 2026-05-06 09:11 | 40.72322 | -54.19430 | 39172 ft | 589 kts | 66° |
| 2026-05-06 09:12 | 40.75548 | -54.09563 | 39175 ft | 588 kts | 67° |
| 2026-05-06 09:12 | 40.78793 | -53.99652 | 39175 ft | 588 kts | 66° |
| 2026-05-06 09:13 | 40.82032 | -53.89730 | 39179 ft | 588 kts | 66° |
| 2026-05-06 09:13 | 40.85254 | -53.79776 | 39183 ft | 589 kts | 66° |
| 2026-05-06 09:14 | 40.88457 | -53.69913 | 39179 ft | 587 kts | 66° |
| 2026-05-06 09:14 | 40.91644 | -53.59990 | 39171 ft | 584 kts | 66° |
| 2026-05-06 09:15 | 40.94829 | -53.50110 | 39172 ft | 584 kts | 66° |
| 2026-05-06 09:15 | 40.97990 | -53.40192 | 39173 ft | 585 kts | 66° |
| 2026-05-06 09:16 | 41.01166 | -53.30267 | 39177 ft | 585 kts | 66° |
| 2026-05-06 09:16 | 41.04297 | -53.20389 | 39178 ft | 584 kts | 66° |
| 2026-05-06 09:17 | 41.06921 | -53.12122 | 39176 ft | 584 kts | 66° |
| 2026-05-06 09:17 | 41.10052 | -53.02189 | 39175 ft | 583 kts | 66° |
| 2026-05-06 09:18 | 41.13178 | -52.92251 | 39174 ft | 583 kts | 66° |
| 2026-05-06 09:18 | 41.16291 | -52.82319 | 39173 ft | 584 kts | 66° |
| 2026-05-06 09:19 | 41.19412 | -52.72316 | 39181 ft | 587 kts | 66° |
| 2026-05-06 09:19 | 41.22520 | -52.62323 | 39183 ft | 584 kts | 66° |
| 2026-05-06 09:20 | 41.25588 | -52.52417 | 39181 ft | 583 kts | 66° |
| 2026-05-06 09:20 | 41.28662 | -52.42461 | 39176 ft | 582 kts | 66° |
| 2026-05-06 09:21 | 41.31737 | -52.32460 | 39184 ft | 584 kts | 66° |
| 2026-05-06 09:21 | 41.34800 | -52.22461 | 39195 ft | 583 kts | 66° |
| 2026-05-06 09:22 | 41.37848 | -52.12474 | 39181 ft | 581 kts | 66° |
| 2026-05-06 09:22 | 41.40884 | -52.02486 | 39182 ft | 582 kts | 66° |
| 2026-05-06 09:23 | 41.43915 | -51.92478 | 39198 ft | 582 kts | 66° |
| 2026-05-06 09:23 | 41.46914 | -51.82533 | 39202 ft | 581 kts | 66° |
| 2026-05-06 09:24 | 41.49928 | -51.72527 | 39193 ft | 580 kts | 66° |
| 2026-05-06 09:24 | 41.52919 | -51.62523 | 39186 ft | 580 kts | 66° |
| 2026-05-06 09:25 | 41.55908 | -51.52516 | 39193 ft | 581 kts | 66° |
| 2026-05-06 09:25 | 41.58890 | -51.42468 | 39202 ft | 583 kts | 66° |
| 2026-05-06 09:26 | 41.61873 | -51.32407 | 39205 ft | 582 kts | 66° |
| 2026-05-06 09:26 | 41.64838 | -51.22335 | 39201 ft | 582 kts | 66° |
| 2026-05-06 09:27 | 41.67806 | -51.12255 | 39195 ft | 582 kts | 66° |
| 2026-05-06 09:27 | 41.70731 | -51.02239 | 39194 ft | 582 kts | 66° |
| 2026-05-06 09:28 | 41.73670 | -50.92147 | 39194 ft | 581 kts | 66° |
| 2026-05-06 09:28 | 41.76616 | -50.82024 | 39205 ft | 582 kts | 66° |
| 2026-05-06 09:29 | 41.79549 | -50.71861 | 39202 ft | 584 kts | 66° |
| 2026-05-06 09:29 | 41.82463 | -50.61795 | 39193 ft | 583 kts | 66° |
| 2026-05-06 09:30 | 41.85362 | -50.51629 | 39191 ft | 583 kts | 66° |
| 2026-05-06 09:30 | 41.88265 | -50.41485 | 39204 ft | 582 kts | 66° |
| 2026-05-06 09:31 | 41.91156 | -50.31335 | 39190 ft | 581 kts | 66° |
| 2026-05-06 09:31 | 41.94034 | -50.21195 | 39201 ft | 581 kts | 66° |
| 2026-05-06 09:32 | 41.96898 | -50.11039 | 39197 ft | 581 kts | 66° |
| 2026-05-06 09:32 | 41.99757 | -50.00877 | 39200 ft | 581 kts | 66° |
| 2026-05-06 09:33 | 42.02352 | -49.90553 | 39204 ft | 583 kts | 68° |
| 2026-05-06 09:33 | 42.04952 | -49.80253 | 39198 ft | 584 kts | 69° |
| 2026-05-06 09:34 | 42.07504 | -49.69860 | 39198 ft | 583 kts | 69° |
| 2026-05-06 09:34 | 42.10086 | -49.59526 | 39198 ft | 583 kts | 69° |
| 2026-05-06 09:35 | 42.12609 | -49.49231 | 39203 ft | 582 kts | 69° |
| 2026-05-06 09:35 | 42.15151 | -49.38895 | 39194 ft | 580 kts | 69° |
| 2026-05-06 09:36 | 42.17658 | -49.28591 | 39198 ft | 577 kts | 69° |
| 2026-05-06 09:36 | 42.20169 | -49.18305 | 39203 ft | 577 kts | 69° |
| 2026-05-06 09:37 | 42.22655 | -49.08001 | 39196 ft | 577 kts | 69° |
| 2026-05-06 09:37 | 42.25141 | -48.97687 | 39196 ft | 577 kts | 69° |
| 2026-05-06 09:38 | 42.27596 | -48.87445 | 39182 ft | 578 kts | 68° |
| 2026-05-06 09:38 | 42.30071 | -48.77075 | 39213 ft | 579 kts | 69° |
| 2026-05-06 09:39 | 42.32537 | -48.66706 | 39213 ft | 578 kts | 69° |
| 2026-05-06 09:39 | 42.34970 | -48.56375 | 39214 ft | 581 kts | 69° |
| 2026-05-06 09:40 | 42.37456 | -48.45939 | 39205 ft | 583 kts | 69° |
| 2026-05-06 09:40 | 42.41096 | -48.30220 | 39208 ft | 584 kts | 69° |
| 2026-05-06 09:41 | 42.43563 | -48.19743 | 39213 ft | 584 kts | 70° |
| 2026-05-06 09:41 | 42.45972 | -48.09314 | 39215 ft | 584 kts | 70° |
| 2026-05-06 09:42 | 42.48397 | -47.98783 | 39213 ft | 584 kts | 69° |
| 2026-05-06 09:42 | 42.50812 | -47.88230 | 39203 ft | 584 kts | 68° |
| 2026-05-06 09:43 | 42.53210 | -47.77795 | 39211 ft | 584 kts | 69° |
| 2026-05-06 09:43 | 42.55596 | -47.67272 | 39208 ft | 582 kts | 69° |
| 2026-05-06 09:44 | 42.57975 | -47.56784 | 39205 ft | 580 kts | 69° |
| 2026-05-06 09:44 | 42.60285 | -47.46345 | 39209 ft | 580 kts | 69° |
| 2026-05-06 09:45 | 42.62674 | -47.35880 | 39214 ft | 578 kts | 69° |
| 2026-05-06 09:45 | 42.64973 | -47.25417 | 39212 ft | 576 kts | 70° |
| 2026-05-06 09:46 | 42.67296 | -47.15064 | 39205 ft | 574 kts | 69° |
| 2026-05-06 09:46 | 42.69579 | -47.04656 | 39202 ft | 573 kts | 70° |
| 2026-05-06 09:47 | 42.71849 | -46.94326 | 39205 ft | 572 kts | 70° |
| 2026-05-06 09:47 | 42.74123 | -46.83934 | 39212 ft | 572 kts | 70° |
| 2026-05-06 09:48 | 42.76381 | -46.73584 | 39209 ft | 572 kts | 70° |
| 2026-05-06 09:48 | 42.78628 | -46.63174 | 39210 ft | 572 kts | 70° |
| 2026-05-06 09:49 | 42.80862 | -46.52821 | 39215 ft | 572 kts | 70° |
| 2026-05-06 09:49 | 42.83096 | -46.42387 | 39212 ft | 572 kts | 70° |
| 2026-05-06 09:50 | 42.85329 | -46.31950 | 39213 ft | 573 kts | 70° |
| 2026-05-06 09:50 | 42.87521 | -46.21579 | 39212 ft | 571 kts | 71° |
| 2026-05-06 09:51 | 42.89731 | -46.11154 | 39209 ft | 571 kts | 70° |
| 2026-05-06 09:51 | 42.91906 | -46.00807 | 39214 ft | 569 kts | 70° |
| 2026-05-06 09:52 | 42.94084 | -45.90398 | 39213 ft | 567 kts | 70° |
| 2026-05-06 09:52 | 42.96225 | -45.80096 | 39213 ft | 567 kts | 70° |